GEC24 FYWH-EDDM
Flight info
| Callsign | GEC24 |
|---|---|
| Flight time | N/A |
| Altitude | 30000 |
| Route | VEDRY UN187 VNA UR526 LIKAD DCT RASOP UG861 IVMED/N0494F320 UG861 DLA UA604 AS UR978 EDAGO/N0487F340 UR978 CSO UA605 CIRTA DCT ETOIL/N0464F360 DCT OMEDA DCT TORTU DCT ERTEV DCT TAGIP DCT GUNGO DCT IVKAL T102 NINUR T101 BETOS BETOS1B |
| Aircraft | MD11/H-SDE1E2E3FGHIJ2J3J4J5M1RWXY/LB1D1 |
Departure
| Time | 2026-04-26 12:45 |
|---|---|
| Airport | Hosea Kutako International Airport (FYWH) |
Arrival
| Time | N/A |
|---|---|
| Airport | Munich Airport (EDDM) |
| Time | Latitude | Longitude | Altitude | Speed | Heading |
|---|---|---|---|---|---|
| 2026-04-26 10:05 | -22.48700 | 17.46069 | 5655 ft | 0 kts | 292° |
| 2026-04-26 12:35 | -22.48700 | 17.46067 | 5656 ft | 1 kts | 292° |
| 2026-04-26 12:35 | -22.48693 | 17.46056 | 5656 ft | 2 kts | 312° |
| 2026-04-26 12:35 | -22.48672 | 17.46032 | 5656 ft | 6 kts | 313° |
| 2026-04-26 12:36 | -22.48635 | 17.46010 | 5656 ft | 5 kts | 358° |
| 2026-04-26 12:36 | -22.48605 | 17.46032 | 5656 ft | 6 kts | 51° |
| 2026-04-26 12:36 | -22.48576 | 17.46089 | 5656 ft | 10 kts | 64° |
| 2026-04-26 12:36 | -22.48539 | 17.46170 | 5656 ft | 13 kts | 63° |
| 2026-04-26 12:37 | -22.48490 | 17.46274 | 5656 ft | 17 kts | 63° |
| 2026-04-26 12:37 | -22.48429 | 17.46401 | 5655 ft | 20 kts | 63° |
| 2026-04-26 12:37 | -22.48358 | 17.46551 | 5655 ft | 23 kts | 65° |
| 2026-04-26 12:37 | -22.48282 | 17.46726 | 5655 ft | 27 kts | 64° |
| 2026-04-26 12:38 | -22.48192 | 17.46919 | 5655 ft | 30 kts | 62° |
| 2026-04-26 12:38 | -22.48094 | 17.47136 | 5654 ft | 33 kts | 64° |
| 2026-04-26 12:38 | -22.47982 | 17.47367 | 5654 ft | 36 kts | 62° |
| 2026-04-26 12:38 | -22.47870 | 17.47613 | 5654 ft | 35 kts | 64° |
| 2026-04-26 12:39 | -22.47769 | 17.47848 | 5654 ft | 32 kts | 64° |
| 2026-04-26 12:39 | -22.47651 | 17.47898 | 5654 ft | 11 kts | 337° |
| 2026-04-26 12:39 | -22.47609 | 17.47919 | 5653 ft | 5 kts | 63° |
| 2026-04-26 12:39 | -22.47590 | 17.47960 | 5653 ft | 7 kts | 64° |
| 2026-04-26 12:40 | -22.47559 | 17.48027 | 5653 ft | 12 kts | 63° |
| 2026-04-26 12:40 | -22.47514 | 17.48124 | 5653 ft | 16 kts | 63° |
| 2026-04-26 12:40 | -22.47453 | 17.48251 | 5653 ft | 21 kts | 63° |
| 2026-04-26 12:40 | -22.47377 | 17.48404 | 5653 ft | 25 kts | 61° |
| 2026-04-26 12:41 | -22.47294 | 17.48579 | 5653 ft | 26 kts | 62° |
| 2026-04-26 12:41 | -22.47225 | 17.48747 | 5652 ft | 21 kts | 82° |
| 2026-04-26 12:41 | -22.47260 | 17.48871 | 5652 ft | 15 kts | 109° |
| 2026-04-26 12:41 | -22.47253 | 17.48944 | 5652 ft | 5 kts | 37° |
| 2026-04-26 12:42 | -22.47227 | 17.48955 | 5652 ft | 2 kts | 9° |
| 2026-04-26 12:42 | -22.47206 | 17.48957 | 5652 ft | 2 kts | 358° |
| 2026-04-26 12:42 | -22.47184 | 17.48952 | 5652 ft | 3 kts | 340° |
| 2026-04-26 12:42 | -22.47154 | 17.48935 | 5652 ft | 4 kts | 323° |
| 2026-04-26 12:43 | -22.47148 | 17.48922 | 5652 ft | 0 kts | 271° |
| 2026-04-26 12:43 | -22.47150 | 17.48917 | 5652 ft | 0 kts | 246° |
| 2026-04-26 12:43 | -22.47150 | 17.48916 | 5652 ft | 0 kts | 245° |
| 2026-04-26 12:43 | -22.47151 | 17.48915 | 5652 ft | 0 kts | 245° |
| 2026-04-26 12:44 | -22.47152 | 17.48913 | 5652 ft | 2 kts | 245° |
| 2026-04-26 12:44 | -22.47234 | 17.48728 | 5653 ft | 56 kts | 244° |
| 2026-04-26 12:44 | -22.47493 | 17.48158 | 5653 ft | 111 kts | 244° |
| 2026-04-26 12:44 | -22.47909 | 17.47250 | 5655 ft | 158 kts | 243° |
| 2026-04-26 12:45 | -22.48467 | 17.46051 | 5657 ft | 197 kts | 244° |
| 2026-04-26 12:45 | -22.49099 | 17.44640 | 5734 ft | 217 kts | 245° |
| 2026-04-26 12:45 | -22.49760 | 17.43220 | 6174 ft | 210 kts | 246° |
| 2026-04-26 12:45 | -22.50430 | 17.41798 | 6477 ft | 212 kts | 245° |
| 2026-04-26 12:46 | -22.51089 | 17.40418 | 7020 ft | 202 kts | 245° |
| 2026-04-26 12:46 | -22.51745 | 17.39067 | 7315 ft | 207 kts | 245° |
| 2026-04-26 12:46 | -22.52431 | 17.37668 | 7521 ft | 217 kts | 245° |
| 2026-04-26 12:46 | -22.53159 | 17.36182 | 7657 ft | 230 kts | 245° |
| 2026-04-26 12:47 | -22.53825 | 17.34608 | 7988 ft | 228 kts | 265° |
| 2026-04-26 12:47 | -22.53762 | 17.32977 | 8415 ft | 214 kts | 292° |
| 2026-04-26 12:47 | -22.53007 | 17.31598 | 8591 ft | 218 kts | 323° |
| 2026-04-26 12:47 | -22.51663 | 17.30861 | 8846 ft | 218 kts | 354° |
| 2026-04-26 12:48 | -22.50157 | 17.30898 | 9160 ft | 221 kts | 8° |
| 2026-04-26 12:48 | -22.48565 | 17.31192 | 9221 ft | 239 kts | 4° |
| 2026-04-26 12:48 | -22.46855 | 17.31256 | 9357 ft | 252 kts | 353° |
| 2026-04-26 12:48 | -22.45114 | 17.30994 | 9754 ft | 258 kts | 347° |
| 2026-04-26 12:49 | -22.43315 | 17.30542 | 10104 ft | 269 kts | 344° |
| 2026-04-26 12:49 | -22.41451 | 17.29981 | 10244 ft | 291 kts | 343° |
| 2026-04-26 12:49 | -22.39454 | 17.29352 | 10565 ft | 306 kts | 343° |
| 2026-04-26 12:49 | -22.37338 | 17.28693 | 10714 ft | 330 kts | 343° |
| 2026-04-26 12:50 | -22.35015 | 17.27979 | 10814 ft | 355 kts | 343° |
| 2026-04-26 12:50 | -22.32557 | 17.27234 | 10994 ft | 377 kts | 343° |
| 2026-04-26 12:50 | -22.29985 | 17.26454 | 11625 ft | 384 kts | 343° |
| 2026-04-26 12:50 | -22.27400 | 17.25670 | 12304 ft | 390 kts | 343° |
| 2026-04-26 12:51 | -22.24769 | 17.24870 | 13021 ft | 395 kts | 343° |
| 2026-04-26 12:51 | -22.22076 | 17.24047 | 13758 ft | 399 kts | 343° |
| 2026-04-26 12:51 | -22.19397 | 17.23223 | 14416 ft | 404 kts | 343° |
| 2026-04-26 12:51 | -22.16667 | 17.22378 | 15048 ft | 409 kts | 343° |
| 2026-04-26 12:52 | -22.13911 | 17.21532 | 15660 ft | 414 kts | 343° |
| 2026-04-26 12:52 | -22.11134 | 17.20682 | 16254 ft | 419 kts | 343° |
| 2026-04-26 12:52 | -22.08309 | 17.19815 | 16838 ft | 424 kts | 342° |
| 2026-04-26 12:52 | -22.05427 | 17.18925 | 17392 ft | 429 kts | 342° |
| 2026-04-26 12:53 | -22.02516 | 17.18028 | 17972 ft | 435 kts | 342° |
| 2026-04-26 12:53 | -21.99577 | 17.17126 | 18553 ft | 439 kts | 342° |
| 2026-04-26 12:53 | -21.96642 | 17.16227 | 19142 ft | 444 kts | 342° |
| 2026-04-26 12:53 | -21.93652 | 17.15308 | 19731 ft | 448 kts | 342° |
| 2026-04-26 12:54 | -21.90602 | 17.14367 | 20326 ft | 452 kts | 341° |
| 2026-04-26 12:54 | -21.87552 | 17.13427 | 20895 ft | 457 kts | 341° |
| 2026-04-26 12:54 | -21.84485 | 17.12486 | 21461 ft | 461 kts | 341° |
| 2026-04-26 12:54 | -21.81382 | 17.11534 | 22020 ft | 465 kts | 341° |
| 2026-04-26 12:55 | -21.78243 | 17.10568 | 22578 ft | 468 kts | 341° |
| 2026-04-26 12:55 | -21.75122 | 17.09608 | 23106 ft | 472 kts | 341° |
| 2026-04-26 12:55 | -21.71900 | 17.08683 | 23674 ft | 475 kts | 343° |
| 2026-04-26 12:55 | -21.68635 | 17.07873 | 24216 ft | 478 kts | 345° |
| 2026-04-26 12:56 | -21.65355 | 17.07141 | 24710 ft | 481 kts | 345° |
| 2026-04-26 12:56 | -21.62086 | 17.06406 | 25204 ft | 483 kts | 345° |
| 2026-04-26 12:56 | -21.58737 | 17.05638 | 25690 ft | 486 kts | 345° |
| 2026-04-26 12:56 | -21.55431 | 17.04874 | 26168 ft | 488 kts | 345° |
| 2026-04-26 12:57 | -21.52098 | 17.04109 | 26632 ft | 491 kts | 345° |
| 2026-04-26 12:57 | -21.48694 | 17.03337 | 27105 ft | 493 kts | 345° |
| 2026-04-26 12:57 | -21.45324 | 17.02570 | 27584 ft | 495 kts | 344° |
| 2026-04-26 12:58 | -21.38593 | 17.01030 | 28743 ft | 493 kts | 344° |
| 2026-04-26 12:58 | -21.35237 | 17.00264 | 29440 ft | 490 kts | 344° |
| 2026-04-26 12:58 | -21.31891 | 16.99497 | 30063 ft | 488 kts | 344° |
| 2026-04-26 12:58 | -21.28558 | 16.98736 | 30174 ft | 487 kts | 344° |
| 2026-04-26 12:59 | -21.21981 | 16.97243 | 30237 ft | 480 kts | 344° |
| 2026-04-26 12:59 | -21.15386 | 16.95727 | 30256 ft | 480 kts | 344° |
| 2026-04-26 13:00 | -21.08814 | 16.94268 | 30258 ft | 482 kts | 345° |
| 2026-04-26 13:00 | -21.02221 | 16.92866 | 30260 ft | 482 kts | 345° |
| 2026-04-26 13:01 | -20.95616 | 16.91432 | 30258 ft | 483 kts | 345° |
| 2026-04-26 13:01 | -20.88992 | 16.90023 | 30254 ft | 483 kts | 345° |
| 2026-04-26 13:02 | -20.82322 | 16.88582 | 30260 ft | 483 kts | 345° |
| 2026-04-26 13:02 | -20.75709 | 16.87171 | 30258 ft | 483 kts | 345° |
| 2026-04-26 13:03 | -20.69101 | 16.85747 | 30259 ft | 483 kts | 345° |
| 2026-04-26 13:03 | -20.62445 | 16.84321 | 30263 ft | 483 kts | 345° |
| 2026-04-26 13:04 | -20.55818 | 16.82897 | 30268 ft | 483 kts | 345° |
| 2026-04-26 13:04 | -20.49167 | 16.81469 | 30268 ft | 483 kts | 345° |
| 2026-04-26 13:05 | -20.42551 | 16.80050 | 30270 ft | 483 kts | 345° |
| 2026-04-26 13:05 | -20.35915 | 16.78626 | 30269 ft | 484 kts | 345° |
| 2026-04-26 13:06 | -20.29289 | 16.77206 | 30264 ft | 484 kts | 346° |
| 2026-04-26 13:06 | -20.22620 | 16.75802 | 30261 ft | 485 kts | 346° |
| 2026-04-26 13:07 | -20.15949 | 16.74376 | 30258 ft | 485 kts | 346° |
| 2026-04-26 13:07 | -20.09322 | 16.72976 | 30258 ft | 485 kts | 346° |
| 2026-04-26 13:08 | -20.02684 | 16.71561 | 30256 ft | 485 kts | 346° |
| 2026-04-26 13:08 | -19.96019 | 16.70150 | 30256 ft | 485 kts | 346° |
| 2026-04-26 13:09 | -19.89347 | 16.68730 | 30261 ft | 485 kts | 346° |
| 2026-04-26 13:09 | -19.82699 | 16.67319 | 30266 ft | 486 kts | 346° |
| 2026-04-26 13:10 | -19.75995 | 16.65896 | 30262 ft | 486 kts | 346° |
| 2026-04-26 13:10 | -19.69321 | 16.64478 | 30259 ft | 486 kts | 346° |
| 2026-04-26 13:11 | -19.62627 | 16.63058 | 30261 ft | 486 kts | 346° |
| 2026-04-26 13:11 | -19.55969 | 16.61643 | 30243 ft | 487 kts | 346° |
| 2026-04-26 13:12 | -19.49226 | 16.60214 | 30231 ft | 488 kts | 346° |
| 2026-04-26 13:12 | -19.42564 | 16.58819 | 30218 ft | 488 kts | 346° |
| 2026-04-26 13:13 | -19.35820 | 16.57395 | 30211 ft | 488 kts | 346° |
| 2026-04-26 13:13 | -19.29153 | 16.55998 | 30201 ft | 488 kts | 347° |
| 2026-04-26 13:14 | -19.22454 | 16.54585 | 30196 ft | 488 kts | 346° |
| 2026-04-26 13:14 | -19.15752 | 16.53177 | 30187 ft | 488 kts | 347° |
| 2026-04-26 13:15 | -19.09047 | 16.51768 | 30183 ft | 489 kts | 347° |
| 2026-04-26 13:15 | -19.03831 | 16.50668 | 30181 ft | 490 kts | 347° |
| 2026-04-26 13:16 | -18.95970 | 16.49020 | 30174 ft | 490 kts | 347° |
| 2026-04-26 13:16 | -18.89215 | 16.47595 | 30169 ft | 490 kts | 347° |
| 2026-04-26 13:17 | -18.79151 | 16.45481 | 30171 ft | 490 kts | 347° |
| 2026-04-26 13:18 | -18.68992 | 16.43738 | 30170 ft | 491 kts | 349° |
| 2026-04-26 13:19 | -18.58796 | 16.41997 | 30166 ft | 491 kts | 349° |
| 2026-04-26 13:19 | -18.52003 | 16.40850 | 30170 ft | 492 kts | 349° |
| 2026-04-26 13:20 | -18.45198 | 16.39693 | 30173 ft | 492 kts | 349° |
| 2026-04-26 13:20 | -18.38378 | 16.38537 | 30173 ft | 492 kts | 349° |
| 2026-04-26 13:21 | -18.31580 | 16.37385 | 30173 ft | 493 kts | 349° |
| 2026-04-26 13:21 | -18.24746 | 16.36226 | 30174 ft | 493 kts | 349° |
| 2026-04-26 13:22 | -18.17954 | 16.35021 | 30162 ft | 491 kts | 344° |
| 2026-04-26 13:22 | -18.11559 | 16.32464 | 30184 ft | 488 kts | 329° |
| 2026-04-26 13:23 | -18.05823 | 16.28614 | 30176 ft | 489 kts | 325° |
| 2026-04-26 13:23 | -18.00141 | 16.24611 | 30158 ft | 490 kts | 326° |
| 2026-04-26 13:24 | -17.94418 | 16.20652 | 30151 ft | 491 kts | 326° |
| 2026-04-26 13:24 | -17.88685 | 16.16688 | 30142 ft | 491 kts | 326° |
| 2026-04-26 13:25 | -17.82988 | 16.12723 | 30138 ft | 491 kts | 326° |
| 2026-04-26 13:25 | -17.77275 | 16.08763 | 30133 ft | 490 kts | 326° |
| 2026-04-26 13:26 | -17.71548 | 16.04776 | 30129 ft | 489 kts | 326° |
| 2026-04-26 13:26 | -17.65869 | 16.00838 | 30129 ft | 490 kts | 326° |
| 2026-04-26 13:27 | -17.60180 | 15.96875 | 30128 ft | 490 kts | 326° |
| 2026-04-26 13:27 | -17.54459 | 15.92905 | 30129 ft | 490 kts | 326° |
| 2026-04-26 13:28 | -17.48739 | 15.88924 | 30131 ft | 490 kts | 326° |
| 2026-04-26 13:28 | -17.43008 | 15.84955 | 30123 ft | 491 kts | 328° |
| 2026-04-26 13:29 | -17.36905 | 15.81759 | 30137 ft | 490 kts | 340° |
| 2026-04-26 13:29 | -17.30367 | 15.79534 | 30141 ft | 492 kts | 343° |
| 2026-04-26 13:30 | -17.23757 | 15.77492 | 30140 ft | 493 kts | 343° |
| 2026-04-26 13:30 | -17.17161 | 15.75428 | 30141 ft | 493 kts | 343° |
| 2026-04-26 13:31 | -17.10530 | 15.73345 | 30141 ft | 494 kts | 343° |
| 2026-04-26 13:31 | -17.03923 | 15.71271 | 30124 ft | 495 kts | 343° |
| 2026-04-26 13:32 | -16.97264 | 15.69195 | 30129 ft | 495 kts | 343° |
| 2026-04-26 13:32 | -16.90643 | 15.67126 | 30133 ft | 494 kts | 343° |
| 2026-04-26 13:33 | -16.84017 | 15.65061 | 30140 ft | 494 kts | 343° |
| 2026-04-26 13:33 | -16.77380 | 15.62987 | 30147 ft | 495 kts | 343° |
| 2026-04-26 13:34 | -16.70757 | 15.60922 | 30149 ft | 495 kts | 343° |
| 2026-04-26 13:34 | -16.64104 | 15.58843 | 30149 ft | 496 kts | 343° |
| 2026-04-26 13:35 | -16.57463 | 15.56772 | 30151 ft | 495 kts | 343° |
| 2026-04-26 13:35 | -16.50851 | 15.54711 | 30153 ft | 495 kts | 344° |
| 2026-04-26 13:36 | -16.44212 | 15.52668 | 30155 ft | 495 kts | 344° |
| 2026-04-26 13:36 | -16.37512 | 15.50585 | 30157 ft | 496 kts | 344° |
| 2026-04-26 13:37 | -16.30888 | 15.48544 | 30157 ft | 497 kts | 344° |
| 2026-04-26 13:37 | -16.24206 | 15.46469 | 30157 ft | 497 kts | 344° |
| 2026-04-26 13:38 | -16.17542 | 15.44415 | 30158 ft | 497 kts | 344° |
| 2026-04-26 13:38 | -16.10863 | 15.42342 | 30158 ft | 497 kts | 344° |
| 2026-04-26 13:39 | -16.04186 | 15.40280 | 30157 ft | 498 kts | 344° |
| 2026-04-26 13:39 | -15.97537 | 15.38220 | 30151 ft | 498 kts | 344° |
| 2026-04-26 13:40 | -15.90812 | 15.36140 | 30147 ft | 499 kts | 344° |
| 2026-04-26 13:40 | -15.84052 | 15.34047 | 30146 ft | 500 kts | 344° |
| 2026-04-26 13:41 | -15.77330 | 15.31968 | 30146 ft | 500 kts | 344° |
| 2026-04-26 13:41 | -15.70652 | 15.29906 | 30151 ft | 500 kts | 344° |
| 2026-04-26 13:42 | -15.63949 | 15.27860 | 30151 ft | 499 kts | 344° |
| 2026-04-26 13:42 | -15.57242 | 15.25788 | 30148 ft | 499 kts | 345° |
| 2026-04-26 13:43 | -15.50525 | 15.23741 | 30152 ft | 500 kts | 344° |
| 2026-04-26 13:43 | -15.44185 | 15.21785 | 30159 ft | 500 kts | 345° |
| 2026-04-26 13:44 | -15.37501 | 15.19741 | 30156 ft | 501 kts | 345° |
| 2026-04-26 13:44 | -15.30775 | 15.17670 | 30160 ft | 501 kts | 345° |
| 2026-04-26 13:45 | -15.24088 | 15.15624 | 30167 ft | 500 kts | 344° |
| 2026-04-26 13:45 | -15.17359 | 15.13555 | 30171 ft | 500 kts | 345° |
| 2026-04-26 13:46 | -15.10635 | 15.11494 | 30176 ft | 501 kts | 345° |
| 2026-04-26 13:46 | -15.03923 | 15.09430 | 30178 ft | 503 kts | 345° |
| 2026-04-26 13:47 | -14.97176 | 15.07363 | 30179 ft | 502 kts | 344° |
| 2026-04-26 13:47 | -14.90432 | 15.05295 | 30181 ft | 502 kts | 345° |
| 2026-04-26 13:48 | -14.83677 | 15.03251 | 30181 ft | 502 kts | 344° |
| 2026-04-26 13:48 | -14.76930 | 15.01186 | 30181 ft | 502 kts | 345° |
| 2026-04-26 13:49 | -14.70190 | 14.99142 | 30178 ft | 503 kts | 345° |
| 2026-04-26 13:49 | -14.63452 | 14.97081 | 30180 ft | 503 kts | 345° |
| 2026-04-26 13:50 | -14.56708 | 14.95038 | 30183 ft | 503 kts | 345° |
| 2026-04-26 13:50 | -14.49987 | 14.92982 | 30184 ft | 503 kts | 345° |
| 2026-04-26 13:51 | -14.43249 | 14.90937 | 30188 ft | 503 kts | 345° |
| 2026-04-26 13:51 | -14.36490 | 14.88872 | 30190 ft | 502 kts | 345° |
| 2026-04-26 13:52 | -14.29781 | 14.86836 | 30192 ft | 502 kts | 345° |
| 2026-04-26 13:52 | -14.23032 | 14.84773 | 30192 ft | 502 kts | 345° |
| 2026-04-26 13:53 | -14.16294 | 14.82729 | 30196 ft | 502 kts | 344° |
| 2026-04-26 13:53 | -14.09545 | 14.80674 | 30204 ft | 503 kts | 345° |
| 2026-04-26 13:54 | -14.02825 | 14.78661 | 30204 ft | 502 kts | 345° |
| 2026-04-26 13:54 | -13.96067 | 14.76601 | 30208 ft | 502 kts | 345° |
| 2026-04-26 13:55 | -13.87191 | 14.73929 | 30215 ft | 502 kts | 345° |
| 2026-04-26 13:56 | -13.75953 | 14.70534 | 30223 ft | 502 kts | 345° |
| 2026-04-26 13:56 | -13.69233 | 14.68490 | 30224 ft | 502 kts | 345° |
| 2026-04-26 13:57 | -13.62526 | 14.66474 | 30231 ft | 502 kts | 345° |
| 2026-04-26 13:57 | -13.55784 | 14.64425 | 30227 ft | 503 kts | 345° |
| 2026-04-26 13:58 | -13.49074 | 14.62405 | 30224 ft | 503 kts | 345° |
| 2026-04-26 13:58 | -13.42349 | 14.60366 | 30209 ft | 503 kts | 345° |
| 2026-04-26 13:59 | -13.35610 | 14.58332 | 30194 ft | 502 kts | 345° |
| 2026-04-26 13:59 | -13.28864 | 14.56301 | 30180 ft | 502 kts | 345° |
| 2026-04-26 14:00 | -13.15408 | 14.52260 | 30149 ft | 503 kts | 345° |
| 2026-04-26 14:01 | -13.08683 | 14.50241 | 30139 ft | 503 kts | 345° |
| 2026-04-26 14:01 | -13.01923 | 14.48208 | 30139 ft | 504 kts | 345° |
| 2026-04-26 14:02 | -12.95181 | 14.46187 | 30138 ft | 503 kts | 345° |
| 2026-04-26 14:02 | -12.88439 | 14.44158 | 30137 ft | 502 kts | 345° |
| 2026-04-26 14:03 | -12.81737 | 14.42147 | 30134 ft | 503 kts | 345° |
| 2026-04-26 14:03 | -12.75005 | 14.40122 | 30131 ft | 503 kts | 345° |
| 2026-04-26 14:04 | -12.68266 | 14.38101 | 30131 ft | 503 kts | 346° |
| 2026-04-26 14:04 | -12.61519 | 14.36105 | 30130 ft | 503 kts | 345° |
| 2026-04-26 14:05 | -12.54872 | 14.34104 | 30132 ft | 503 kts | 346° |
| 2026-04-26 14:05 | -12.48136 | 14.32103 | 30130 ft | 503 kts | 346° |
| 2026-04-26 14:06 | -12.41411 | 14.30085 | 30128 ft | 502 kts | 346° |
| 2026-04-26 14:06 | -12.34699 | 14.28088 | 30133 ft | 502 kts | 346° |
| 2026-04-26 14:07 | -12.27986 | 14.26078 | 30122 ft | 501 kts | 346° |
| 2026-04-26 14:07 | -12.21259 | 14.24072 | 30119 ft | 502 kts | 346° |
| 2026-04-26 14:08 | -12.14532 | 14.22062 | 30116 ft | 502 kts | 346° |
| 2026-04-26 14:08 | -12.07806 | 14.20052 | 30107 ft | 501 kts | 346° |
| 2026-04-26 14:09 | -12.01076 | 14.18043 | 30099 ft | 501 kts | 346° |
| 2026-04-26 14:09 | -11.94387 | 14.16043 | 30086 ft | 501 kts | 346° |
| 2026-04-26 14:10 | -11.87700 | 14.14049 | 30056 ft | 500 kts | 346° |
| 2026-04-26 14:10 | -11.80985 | 14.12061 | 30036 ft | 500 kts | 346° |
| 2026-04-26 14:11 | -11.70901 | 14.09062 | 30020 ft | 500 kts | 346° |
| 2026-04-26 14:11 | -11.64220 | 14.07085 | 29997 ft | 499 kts | 346° |
| 2026-04-26 14:12 | -11.57530 | 14.05093 | 29983 ft | 499 kts | 346° |
| 2026-04-26 14:12 | -11.50841 | 14.03114 | 29969 ft | 499 kts | 346° |
| 2026-04-26 14:13 | -11.40811 | 14.00131 | 29950 ft | 500 kts | 346° |
| 2026-04-26 14:14 | -11.34117 | 13.98148 | 29937 ft | 499 kts | 346° |
| 2026-04-26 14:14 | -11.27415 | 13.96153 | 29929 ft | 499 kts | 346° |
| 2026-04-26 14:15 | -11.20753 | 13.94182 | 29919 ft | 498 kts | 346° |
| 2026-04-26 14:15 | -11.14066 | 13.92189 | 29912 ft | 498 kts | 346° |
| 2026-04-26 14:16 | -11.07361 | 13.90207 | 29908 ft | 499 kts | 346° |
| 2026-04-26 14:16 | -11.00707 | 13.88238 | 29903 ft | 499 kts | 346° |
| 2026-04-26 14:17 | -10.94014 | 13.86261 | 29898 ft | 498 kts | 346° |
| 2026-04-26 14:17 | -10.87335 | 13.84285 | 29896 ft | 497 kts | 346° |
| 2026-04-26 14:18 | -10.80661 | 13.82312 | 29894 ft | 497 kts | 346° |
| 2026-04-26 14:18 | -10.73996 | 13.80354 | 29890 ft | 497 kts | 347° |
| 2026-04-26 14:19 | -10.67341 | 13.78395 | 29888 ft | 497 kts | 346° |
| 2026-04-26 14:19 | -10.60652 | 13.76405 | 29885 ft | 497 kts | 346° |
| 2026-04-26 14:20 | -10.53979 | 13.74433 | 29883 ft | 497 kts | 346° |
| 2026-04-26 14:20 | -10.47319 | 13.72453 | 29881 ft | 496 kts | 346° |
| 2026-04-26 14:21 | -10.40704 | 13.70499 | 29881 ft | 496 kts | 346° |
| 2026-04-26 14:21 | -10.34032 | 13.68514 | 29877 ft | 496 kts | 347° |
| 2026-04-26 14:22 | -10.27392 | 13.66554 | 29878 ft | 496 kts | 346° |
| 2026-04-26 14:22 | -10.20749 | 13.64577 | 29876 ft | 496 kts | 347° |
| 2026-04-26 14:23 | -10.14088 | 13.62610 | 29875 ft | 496 kts | 346° |
| 2026-04-26 14:23 | -10.07426 | 13.60673 | 29875 ft | 495 kts | 347° |
| 2026-04-26 14:24 | -10.00781 | 13.58734 | 29875 ft | 495 kts | 346° |
| 2026-04-26 14:24 | -9.94161 | 13.56788 | 29880 ft | 495 kts | 347° |
| 2026-04-26 14:25 | -9.87475 | 13.54834 | 29884 ft | 495 kts | 347° |
| 2026-04-26 14:25 | -9.80815 | 13.52879 | 29888 ft | 495 kts | 347° |
| 2026-04-26 14:26 | -9.74169 | 13.50936 | 29888 ft | 495 kts | 347° |
| 2026-04-26 14:26 | -9.67512 | 13.48981 | 29889 ft | 495 kts | 347° |
| 2026-04-26 14:27 | -9.60869 | 13.47039 | 29889 ft | 495 kts | 347° |
| 2026-04-26 14:27 | -9.54236 | 13.45091 | 29892 ft | 495 kts | 347° |
| 2026-04-26 14:28 | -9.47580 | 13.43145 | 29894 ft | 495 kts | 347° |
| 2026-04-26 14:28 | -9.40950 | 13.41198 | 29895 ft | 495 kts | 347° |
| 2026-04-26 14:29 | -9.34304 | 13.39256 | 29895 ft | 496 kts | 346° |
| 2026-04-26 14:29 | -9.27630 | 13.37298 | 29895 ft | 496 kts | 346° |
| 2026-04-26 14:30 | -9.20998 | 13.35372 | 29895 ft | 495 kts | 347° |
| 2026-04-26 14:30 | -9.14365 | 13.33427 | 29891 ft | 494 kts | 347° |
| 2026-04-26 14:31 | -9.07710 | 13.31491 | 29890 ft | 495 kts | 347° |
| 2026-04-26 14:31 | -9.01094 | 13.29554 | 29895 ft | 495 kts | 347° |
| 2026-04-26 14:32 | -8.94411 | 13.27609 | 29894 ft | 496 kts | 346° |
| 2026-04-26 14:32 | -8.87802 | 13.25653 | 29884 ft | 496 kts | 345° |
| 2026-04-26 14:33 | -8.81364 | 13.23361 | 29882 ft | 497 kts | 341° |
| 2026-04-26 14:33 | -8.74939 | 13.20719 | 29889 ft | 498 kts | 340° |
| 2026-04-26 14:34 | -8.68520 | 13.18015 | 30462 ft | 499 kts | 341° |
| 2026-04-26 14:34 | -8.65335 | 13.16693 | 31056 ft | 498 kts | 341° |
| 2026-04-26 14:34 | -8.62104 | 13.15352 | 31701 ft | 496 kts | 341° |
| 2026-04-26 14:34 | -8.58902 | 13.14015 | 32317 ft | 494 kts | 341° |
| 2026-04-26 14:35 | -8.55763 | 13.12698 | 32927 ft | 492 kts | 341° |
| 2026-04-26 14:35 | -8.52571 | 13.11366 | 33536 ft | 490 kts | 341° |
| 2026-04-26 14:35 | -8.49422 | 13.10057 | 33806 ft | 487 kts | 341° |
| 2026-04-26 14:36 | -8.43241 | 13.07469 | 33840 ft | 480 kts | 341° |